Aérodrome :
LOGIN :

S'inscrire | Disclaimer

   EN    FR    IT 

 










Légende :    VFR   VFR Marginal   IFR   IFR Intensif   IFR Très Intensif
Visi : 
Plafond : 
>= 8 km
>= 3000ft
5 à 8 km
1000 à 3000 ft
1500m à 5 km
500 à 1000 ft
800 à 1500m
200 à 500 ft
< 800m
< 200 ft
Symboles :   Orages  Brouillard  Fortes neiges  Fortes précipitations  Vent > 20 kt
SIGMETs :   Divers  Orages  Givrage  Turbulence  Onde Orograph.  Cendres Volcan.






- Altitude de l'aérodrome : 529 ft
- Code IATA : CHR


LFLX - Chateauroux

DERNIER METAR :
  • 160830Z AUTO 03010KT 360V060 CAVOK 07/M01 Q1024 NOSIG

METARs EXPIRÉS :
  • 160800Z AUTO 02011KT CAVOK 06/M00 Q1024 NOSIG
  • 160730Z AUTO 02011KT CAVOK 05/M00 Q1024 NOSIG
  • 160700Z AUTO 02011KT CAVOK 03/M01 Q1024 NOSIG
  • 160630Z AUTO 36011KT CAVOK 02/M01 Q1024 NOSIG
  • 160600Z AUTO 01010KT CAVOK 00/M02 Q1024 NOSIG

TAF TAF LFLX
Valide du 16 à 06h jusqu'au 17 à 12h UTC


160500Z 1606/1712 03010KT CAVOK
PROB40
TEMPO 1612/1616 03015G25KT



MET'MAP, la Météo Aéronautique d'un coup d'oeil ! - Copyright ORBIFLY Décembre 2007 - Disclaimer

ORBIFLY MET'MAP TEAM :

Programmation & Développement : Alexandra Zaïnal
Sur une idée originale de : Baudouin d'Aumeries
Assistance à la programmation : Marc-Olivier Méhu
Soutien technique & logistique : Manuel Goepfert

Contact : metmap@orbifly.com




SOURCES & CREDITS :

   NOAA